createdAt,value
2023-03-24T00:00:40.383Z,13.37
2023-03-24T00:01:40.673Z,13.37
2023-03-24T00:02:41.834Z,13.39
2023-03-24T00:03:42.249Z,13.26
2023-03-24T00:04:42.576Z,13.33
2023-03-24T00:05:43.142Z,13.39
2023-03-24T00:06:43.761Z,13.36
2023-03-24T00:07:46.774Z,13.31
2023-03-24T00:08:45.305Z,13.3
2023-03-24T00:09:45.848Z,13.26
2023-03-24T00:10:47.179Z,13.33
2023-03-24T00:11:47.012Z,13.3
2023-03-24T00:12:47.698Z,13.33
2023-03-24T00:13:48.670Z,13.33
2023-03-24T00:14:49.839Z,13.31
2023-03-24T00:15:50.846Z,13.46
2023-03-24T00:16:50.574Z,13.37
2023-03-24T00:17:51.220Z,13.47
2023-03-24T00:18:51.686Z,13.37
2023-03-24T00:19:52.645Z,13.46
2023-03-24T00:20:53.457Z,13.37
2023-03-24T00:21:54.158Z,13.33
2023-03-24T00:22:54.465Z,13.4
2023-03-24T00:23:54.959Z,13.37
2023-03-24T00:24:55.486Z,13.3
2023-03-24T00:25:56.173Z,13.4
2023-03-24T00:26:56.191Z,13.4
2023-03-24T00:27:56.892Z,13.24
2023-03-24T00:28:57.805Z,13.17
2023-03-24T00:29:58.754Z,13.28
2023-03-24T00:30:58.952Z,13.3
2023-03-24T00:31:58.972Z,13.4
2023-03-24T00:32:59.724Z,13.33
2023-03-24T00:34:00.367Z,13.26
2023-03-24T00:35:01.270Z,13.28
2023-03-24T00:36:02.113Z,13.28
2023-03-24T00:37:01.560Z,13.3
2023-03-24T00:38:02.081Z,13.24
2023-03-24T00:39:02.634Z,13.3
2023-03-24T00:40:03.561Z,13.27
2023-03-24T00:41:04.286Z,13.26
2023-03-24T00:42:05.020Z,13.26
2023-03-24T00:43:05.488Z,13.28
2023-03-24T00:44:06.237Z,13.31
2023-03-24T00:45:06.980Z,13.3
2023-03-24T00:46:07.536Z,13.33
2023-03-24T00:47:08.565Z,13.26
2023-03-24T00:48:09.402Z,13.33
2023-03-24T00:49:09.516Z,13.37
2023-03-24T00:50:10.050Z,13.33
2023-03-24T00:51:10.907Z,13.27
2023-03-24T00:52:11.646Z,13.4
2023-03-24T00:53:12.385Z,13.37
2023-03-24T00:54:13.152Z,13.37
2023-03-24T00:55:13.582Z,13.24
2023-03-24T00:56:14.485Z,13.28
2023-03-24T00:57:15.416Z,13.21
2023-03-24T00:58:16.299Z,13.27
2023-03-24T00:59:17.185Z,13.24
2023-03-24T01:00:17.752Z,13.28
2023-03-24T01:01:17.761Z,13.36
2023-03-24T01:02:18.361Z,13.3
2023-03-24T01:03:18.290Z,13.4
2023-03-24T01:04:19.071Z,13.42
2023-03-24T01:05:19.766Z,13.42
2023-03-24T01:06:20.310Z,13.43
2023-03-24T01:07:20.922Z,13.52
2023-03-24T01:08:21.644Z,13.58
2023-03-24T01:09:22.142Z,13.57
2023-03-24T01:10:23.232Z,13.52
2023-03-24T01:11:23.942Z,13.6
2023-03-24T01:12:25.021Z,13.6
2023-03-24T01:13:24.924Z,13.6
2023-03-24T01:14:25.429Z,13.64
2023-03-24T01:15:26.432Z,13.61
2023-03-24T01:16:27.241Z,13.6
2023-03-24T01:17:28.253Z,13.6
2023-03-24T01:18:28.867Z,13.54
2023-03-24T01:19:29.385Z,13.61
2023-03-24T01:20:29.918Z,13.58
2023-03-24T01:21:30.614Z,13.58
2023-03-24T01:22:31.098Z,13.58
2023-03-24T01:23:31.409Z,13.55
2023-03-24T01:24:32.251Z,13.57
2023-03-24T01:25:32.543Z,13.57
2023-03-24T01:26:33.265Z,13.54
2023-03-24T01:27:34.163Z,13.64
2023-03-24T01:28:34.855Z,13.58
2023-03-24T01:29:35.799Z,13.6
2023-03-24T01:30:36.520Z,13.58
2023-03-24T01:31:37.904Z,13.62
2023-03-24T01:32:37.799Z,13.6
2023-03-24T01:33:38.750Z,13.67
2023-03-24T01:34:39.454Z,13.65
2023-03-24T01:35:39.460Z,13.64
2023-03-24T01:36:40.317Z,13.54
2023-03-24T01:37:40.129Z,13.61
2023-03-24T01:38:40.875Z,13.62
2023-03-24T01:39:40.803Z,13.57
2023-03-24T01:40:41.093Z,13.61
2023-03-24T01:41:42.798Z,13.67
2023-03-24T01:42:42.180Z,13.64
2023-03-24T01:43:43.080Z,13.64
2023-03-24T01:44:44.068Z,13.62
2023-03-24T01:45:44.331Z,13.62
2023-03-24T01:46:44.333Z,13.7
2023-03-24T01:47:44.941Z,13.67
2023-03-24T01:48:44.733Z,13.67
2023-03-24T01:49:45.493Z,13.73
2023-03-24T01:50:45.719Z,13.65
2023-03-24T01:51:45.774Z,13.62
2023-03-24T01:52:46.276Z,13.57
2023-03-24T01:53:46.962Z,13.64
2023-03-24T01:54:47.898Z,13.61
2023-03-24T01:55:48.583Z,13.61
2023-03-24T01:56:49.386Z,13.65
2023-03-24T01:57:50.159Z,13.57
2023-03-24T01:58:51.069Z,13.62
2023-03-24T01:59:52.005Z,13.61
2023-03-24T02:00:53.323Z,13.6
2023-03-24T02:01:53.676Z,13.6
2023-03-24T02:02:54.477Z,13.58
2023-03-24T02:03:55.501Z,13.58
2023-03-24T02:04:55.684Z,13.55
2023-03-24T02:05:56.586Z,13.58
2023-03-24T02:06:57.464Z,13.46
2023-03-24T02:07:57.873Z,13.43
2023-03-24T02:08:58.591Z,13.4
2023-03-24T02:09:58.507Z,13.45
2023-03-24T02:10:59.421Z,13.43
2023-03-24T02:11:59.754Z,13.46
2023-03-24T02:13:00.667Z,13.49
2023-03-24T02:14:01.385Z,13.43
2023-03-24T02:15:02.278Z,13.46
2023-03-24T02:16:03.147Z,13.3
2023-03-24T02:17:02.735Z,13.24
2023-03-24T02:18:03.503Z,13.31
2023-03-24T02:19:04.204Z,13.37
2023-03-24T02:20:04.940Z,13.23
2023-03-24T02:21:05.650Z,13.24
2023-03-24T02:22:05.948Z,13.16
2023-03-24T02:23:06.240Z,13.27
2023-03-24T02:24:07.336Z,13.19
2023-03-24T02:25:07.665Z,13.21
2023-03-24T02:26:08.371Z,13.21
2023-03-24T02:27:09.103Z,13.26
2023-03-24T02:28:09.301Z,13.24
2023-03-24T02:29:09.403Z,13.27
2023-03-24T02:30:10.119Z,13.27
2023-03-24T02:31:10.937Z,13.33
2023-03-24T02:32:10.775Z,13.26
2023-03-24T02:33:11.776Z,13.3
2023-03-24T02:34:12.659Z,13.39
2023-03-24T02:35:13.167Z,13.36
2023-03-24T02:36:13.728Z,13.37
2023-03-24T02:37:14.048Z,13.37
2023-03-24T02:38:14.341Z,13.46
2023-03-24T02:39:15.235Z,13.45
2023-03-24T02:40:15.930Z,13.46
2023-03-24T02:41:16.470Z,13.39
2023-03-24T02:42:16.967Z,13.43
2023-03-24T02:43:17.504Z,13.43
2023-03-24T02:44:17.987Z,13.4
2023-03-24T02:45:19.143Z,13.46
2023-03-24T02:46:20.542Z,13.45
2023-03-24T02:47:20.713Z,13.4
2023-03-24T02:48:21.431Z,13.46
2023-03-24T02:49:21.774Z,13.47
2023-03-24T02:50:22.473Z,13.5
2023-03-24T02:51:23.084Z,13.46
2023-03-24T02:52:23.917Z,13.6
2023-03-24T02:53:24.618Z,13.55
2023-03-24T02:54:25.091Z,13.55
2023-03-24T02:55:25.399Z,13.49
2023-03-24T02:56:26.182Z,13.57
2023-03-24T02:57:26.598Z,13.58
2023-03-24T02:58:27.174Z,13.65
2023-03-24T02:59:27.695Z,13.58
2023-03-24T03:00:28.834Z,13.6
2023-03-24T03:01:29.690Z,13.64
2023-03-24T03:02:29.755Z,13.6
2023-03-24T03:03:30.803Z,13.64
2023-03-24T03:04:33.829Z,13.65
2023-03-24T03:06:32.415Z,13.65
2023-03-24T03:07:33.147Z,13.65
2023-03-24T03:08:33.564Z,13.68
2023-03-24T03:09:33.699Z,13.68
2023-03-24T03:10:34.699Z,13.68
2023-03-24T03:11:35.465Z,13.71
2023-03-24T03:12:36.200Z,13.7
2023-03-24T03:13:36.568Z,13.71
2023-03-24T03:14:37.470Z,13.68
2023-03-24T03:15:37.590Z,13.64
2023-03-24T03:16:38.872Z,13.67
2023-03-24T03:17:39.529Z,13.68
2023-03-24T03:18:40.215Z,13.71
2023-03-24T03:19:41.120Z,13.78
2023-03-24T03:20:41.636Z,13.71
2023-03-24T03:21:42.232Z,13.71
2023-03-24T03:22:42.959Z,13.68
2023-03-24T03:23:44.076Z,13.6
2023-03-24T03:24:44.812Z,13.64
2023-03-24T03:25:45.558Z,13.54
2023-03-24T03:26:46.452Z,13.54
2023-03-24T03:27:47.200Z,13.54
2023-03-24T03:28:47.856Z,13.54
2023-03-24T03:29:48.297Z,13.46
2023-03-24T03:30:49.853Z,13.45
2023-03-24T03:31:49.508Z,13.31
2023-03-24T03:32:50.742Z,13.31
2023-03-24T03:33:50.933Z,13.33
2023-03-24T03:34:51.268Z,13.24
2023-03-24T03:35:52.216Z,13.4
2023-03-24T03:36:52.884Z,13.37
2023-03-24T03:37:53.779Z,13.36
2023-03-24T03:38:54.225Z,13.28
2023-03-24T03:39:54.732Z,13.21
2023-03-24T03:40:55.924Z,13.09
2023-03-24T03:41:55.826Z,13.12
2023-03-24T03:42:56.726Z,13.12
2023-03-24T03:43:57.013Z,13.05
2023-03-24T03:44:57.747Z,13.02
2023-03-24T03:45:58.531Z,12.99
2023-03-24T03:46:59.371Z,12.99
2023-03-24T03:48:00.424Z,13.02
2023-03-24T03:50:01.071Z,12.99
2023-03-24T03:51:17.729Z,13.05
2023-03-24T03:53:02.771Z,13.03
2023-03-24T03:54:03.701Z,13.05
2023-03-24T03:55:04.598Z,13.01
2023-03-24T03:56:04.498Z,13.05
2023-03-24T03:57:05.330Z,13.05
2023-03-24T03:58:05.082Z,13.01
2023-03-24T03:59:05.724Z,13.05
2023-03-24T04:00:06.417Z,13.05
2023-03-24T04:01:07.573Z,13.06
2023-03-24T04:02:08.249Z,13.06
2023-03-24T04:03:09.246Z,13.08
2023-03-24T04:04:09.465Z,13.12
2023-03-24T04:05:12.823Z,13.11
2023-03-24T04:07:11.620Z,13.09
2023-03-24T04:08:12.314Z,13.09
2023-03-24T04:09:12.311Z,13.09
2023-03-24T04:10:12.456Z,13.09
2023-03-24T04:11:13.385Z,13.02
2023-03-24T04:12:14.495Z,13.06
2023-03-24T04:13:15.001Z,13.08
2023-03-24T04:14:15.289Z,13.09
2023-03-24T04:15:16.008Z,13.13
2023-03-24T04:16:17.101Z,13.12
2023-03-24T04:17:17.759Z,13.16
2023-03-24T04:18:18.528Z,13.12
2023-03-24T04:19:19.362Z,13.12
2023-03-24T04:20:19.677Z,13.16
2023-03-24T04:21:20.385Z,13.03
2023-03-24T04:22:21.092Z,13.08
2023-03-24T04:23:21.578Z,13.09
2023-03-24T04:24:22.344Z,13.05
2023-03-24T04:25:22.878Z,13.01
2023-03-24T04:26:23.359Z,13.05
2023-03-24T04:27:24.265Z,12.99
2023-03-24T04:28:24.759Z,13.01
2023-03-24T04:29:25.164Z,13.01
2023-03-24T04:30:26.059Z,13.01
2023-03-24T04:31:27.158Z,13.05
2023-03-24T04:32:27.761Z,13.03
2023-03-24T04:33:28.561Z,12.99
2023-03-24T04:34:28.765Z,12.98
2023-03-24T04:35:29.078Z,12.98
2023-03-24T04:36:29.878Z,13.02
2023-03-24T04:37:30.350Z,12.98
2023-03-24T04:38:31.060Z,13.01
2023-03-24T04:39:31.874Z,13.05
2023-03-24T04:40:32.587Z,13.05
2023-03-24T04:41:33.140Z,13.11
2023-03-24T04:42:33.876Z,13.11
2023-03-24T04:43:34.676Z,13.23
2023-03-24T04:44:35.594Z,13.19
2023-03-24T04:45:36.471Z,13.23
2023-03-24T04:46:37.053Z,13.24
2023-03-24T04:47:37.086Z,13.28
2023-03-24T04:48:37.573Z,13.19
2023-03-24T04:49:38.119Z,13.23
2023-03-24T04:50:39.048Z,13.33
2023-03-24T04:51:39.944Z,13.37
2023-03-24T04:52:40.452Z,13.26
2023-03-24T04:53:41.331Z,13.36
2023-03-24T04:54:41.613Z,13.2
2023-03-24T04:55:42.671Z,13.23
2023-03-24T04:56:42.581Z,13.24
2023-03-24T04:57:42.737Z,13.28
2023-03-24T04:58:43.217Z,13.28
2023-03-24T04:59:43.506Z,13.21
2023-03-24T05:00:44.578Z,13.24
2023-03-24T05:01:45.472Z,13.24
2023-03-24T05:02:45.510Z,13.24
2023-03-24T05:03:46.487Z,13.37
2023-03-24T05:04:46.748Z,13.33
2023-03-24T05:05:47.653Z,13.28
2023-03-24T05:06:48.160Z,13.4
2023-03-24T05:07:48.514Z,13.26
2023-03-24T05:08:49.001Z,13.37
2023-03-24T05:09:50.303Z,13.37
2023-03-24T05:10:50.844Z,13.28
2023-03-24T05:11:51.156Z,13.37
2023-03-24T05:12:52.331Z,13.37
2023-03-24T05:13:52.914Z,13.36
2023-03-24T05:14:53.398Z,13.4
2023-03-24T05:15:54.096Z,13.42
2023-03-24T05:16:54.967Z,13.49
2023-03-24T05:17:56.008Z,13.47
2023-03-24T05:18:55.880Z,13.46
2023-03-24T05:19:56.336Z,13.5
2023-03-24T05:20:56.634Z,13.43
2023-03-24T05:21:57.195Z,13.58
2023-03-24T05:22:58.105Z,13.55
2023-03-24T05:23:58.607Z,13.52
2023-03-24T05:24:59.520Z,13.64
2023-03-24T05:26:00.216Z,13.64
2023-03-24T05:27:00.781Z,13.68
2023-03-24T05:28:00.903Z,13.65
2023-03-24T05:29:01.609Z,13.64
2023-03-24T05:30:02.193Z,13.67
2023-03-24T05:31:02.583Z,13.64
2023-03-24T05:32:03.684Z,13.78
2023-03-24T05:33:04.965Z,13.71
2023-03-24T05:34:04.808Z,13.79
2023-03-24T05:35:05.791Z,13.82
2023-03-24T05:36:06.854Z,13.8
2023-03-24T05:37:07.092Z,13.79
2023-03-24T05:38:07.629Z,13.83
2023-03-24T05:39:08.332Z,13.71
2023-03-24T05:40:09.161Z,13.71
2023-03-24T05:41:09.892Z,13.67
2023-03-24T05:42:10.629Z,13.55
2023-03-24T05:43:11.336Z,13.54
2023-03-24T05:44:12.017Z,13.5
2023-03-24T05:45:12.712Z,13.45
2023-03-24T05:46:14.088Z,13.49
2023-03-24T05:47:15.022Z,13.55
2023-03-24T05:48:15.893Z,13.55
2023-03-24T05:49:16.787Z,13.5
2023-03-24T05:50:17.542Z,13.55
2023-03-24T05:51:18.042Z,13.42
2023-03-24T05:52:19.094Z,13.58
2023-03-24T05:53:19.851Z,13.6
2023-03-24T05:54:20.550Z,13.55
2023-03-24T05:55:21.058Z,13.55
2023-03-24T05:56:21.966Z,13.6
2023-03-24T05:57:22.598Z,13.61
2023-03-24T05:58:23.116Z,13.62
2023-03-24T05:59:23.615Z,13.67
2023-03-24T06:00:24.222Z,13.71
2023-03-24T06:01:24.820Z,13.76
2023-03-24T06:02:26.074Z,13.82
2023-03-24T06:03:26.253Z,13.97
2023-03-24T06:04:26.519Z,13.97
2023-03-24T06:05:27.595Z,14.03
2023-03-24T06:06:27.886Z,14.01
2023-03-24T06:07:28.161Z,14.13
2023-03-24T06:08:29.101Z,14.19
2023-03-24T06:09:29.613Z,14.2
2023-03-24T06:10:30.065Z,14.3
2023-03-24T06:11:30.343Z,14.23
2023-03-24T06:12:31.060Z,14.37
2023-03-24T06:13:31.173Z,14.28
2023-03-24T06:14:31.685Z,14.33
2023-03-24T06:15:32.607Z,14.38
2023-03-24T06:16:33.705Z,14.4
2023-03-24T06:17:34.607Z,14.45
2023-03-24T06:18:35.229Z,14.3
2023-03-24T06:19:36.320Z,14.4
2023-03-24T06:20:36.562Z,14.45
2023-03-24T06:21:39.534Z,14.31
2023-03-24T06:23:37.838Z,14.36
2023-03-24T06:24:38.545Z,14.38
2023-03-24T06:25:39.457Z,14.33
2023-03-24T06:26:39.614Z,14.36
2023-03-24T06:27:40.377Z,14.38
2023-03-24T06:28:41.326Z,14.26
2023-03-24T06:29:42.080Z,14.22
2023-03-24T06:30:42.567Z,14.26
2023-03-24T06:31:43.719Z,14.26
2023-03-24T06:32:44.736Z,14.3
2023-03-24T06:33:45.106Z,14.26
2023-03-24T06:34:45.047Z,14.33
2023-03-24T06:35:46.710Z,14.3
2023-03-24T06:36:46.396Z,14.28
2023-03-24T06:37:47.302Z,14.3
2023-03-24T06:38:47.207Z,14.37
2023-03-24T06:39:47.545Z,14.37
2023-03-24T06:40:48.205Z,14.34
2023-03-24T06:41:48.697Z,14.31
2023-03-24T06:42:49.182Z,14.33
2023-03-24T06:43:49.682Z,14.34
2023-03-24T06:44:50.491Z,14.37
2023-03-24T06:45:51.396Z,14.33
2023-03-24T06:46:51.473Z,14.38
2023-03-24T06:47:52.313Z,14.34
2023-03-24T06:48:52.355Z,14.37
2023-03-24T06:49:53.043Z,14.37
2023-03-24T06:50:53.927Z,14.31
2023-03-24T06:51:54.235Z,14.26
2023-03-24T06:52:54.727Z,14.26
2023-03-24T06:53:55.456Z,14.31
2023-03-24T06:54:56.160Z,14.37
2023-03-24T06:55:57.138Z,14.3
2023-03-24T06:56:57.786Z,14.26
2023-03-24T06:57:58.888Z,14.34
2023-03-24T06:58:59.593Z,14.41
2023-03-24T07:00:00.153Z,14.36
2023-03-24T07:01:00.628Z,14.44
2023-03-24T07:02:01.537Z,14.38
2023-03-24T07:03:01.736Z,14.41
2023-03-24T07:04:01.856Z,14.41
2023-03-24T07:05:02.209Z,14.52
2023-03-24T07:06:02.742Z,14.44
2023-03-24T07:08:34.454Z,14.48
2023-03-24T07:08:53.561Z,14.49
2023-03-24T07:09:54.003Z,14.41
2023-03-24T07:10:54.899Z,14.44
2023-03-24T07:11:55.566Z,14.48
2023-03-24T07:12:55.634Z,14.51
2023-03-24T07:13:56.342Z,14.53
2023-03-24T07:14:57.057Z,14.55
2023-03-24T07:15:57.970Z,14.48
2023-03-24T07:16:58.600Z,14.53
2023-03-24T07:17:59.263Z,14.52
2023-03-24T07:19:00.157Z,14.53
2023-03-24T07:20:00.764Z,14.49
2023-03-24T07:21:01.286Z,14.53
2023-03-24T07:22:02.186Z,14.55
2023-03-24T07:23:03.051Z,14.61
2023-03-24T07:24:03.974Z,14.66
2023-03-24T07:25:04.513Z,14.68
2023-03-24T07:26:05.478Z,14.61
2023-03-24T07:27:05.983Z,14.63
2023-03-24T07:28:06.683Z,14.59
2023-03-24T07:29:07.583Z,14.59
2023-03-24T07:30:08.087Z,14.52
2023-03-24T07:31:08.863Z,14.63
2023-03-24T07:32:09.436Z,14.66
2023-03-24T07:33:10.404Z,14.55
2023-03-24T07:34:11.393Z,14.56
2023-03-24T07:35:12.366Z,14.41
2023-03-24T07:36:12.998Z,14.26
2023-03-24T07:37:13.172Z,14.37
2023-03-24T07:38:14.302Z,14.33
2023-03-24T07:39:14.449Z,14.33
2023-03-24T07:40:14.976Z,14.31
2023-03-24T07:41:16.056Z,14.33
2023-03-24T07:42:18.785Z,14.38
2023-03-24T07:44:18.344Z,14.37
2023-03-24T07:45:18.704Z,14.43
2023-03-24T07:46:20.010Z,14.53
2023-03-24T07:47:19.772Z,14.63
2023-03-24T07:48:20.249Z,14.61
2023-03-24T07:49:25.286Z,14.52
2023-03-24T07:51:21.685Z,14.61
2023-03-24T07:52:22.336Z,14.59
2023-03-24T07:53:22.232Z,14.67
2023-03-24T07:54:23.174Z,14.66
2023-03-24T07:55:23.662Z,14.56
2023-03-24T07:56:24.355Z,14.56
2023-03-24T07:57:25.247Z,14.53
2023-03-24T07:58:25.902Z,14.58
2023-03-24T07:59:28.524Z,14.56
2023-03-24T08:00:26.416Z,14.53
2023-03-24T08:01:27.134Z,14.55
2023-03-24T08:02:28.691Z,14.52
2023-03-24T08:03:29.614Z,14.53
2023-03-24T08:04:30.393Z,14.58
2023-03-24T08:05:30.871Z,14.55
2023-03-24T08:06:31.602Z,14.63
2023-03-24T08:07:31.921Z,14.62
2023-03-24T08:08:32.006Z,14.68
2023-03-24T08:09:32.536Z,14.55
2023-03-24T08:10:33.303Z,14.63
2023-03-24T08:11:34.245Z,14.71
2023-03-24T08:12:35.069Z,14.73
2023-03-24T08:13:35.198Z,14.81
2023-03-24T08:14:35.509Z,14.81
2023-03-24T08:15:36.452Z,14.86
2023-03-24T08:16:36.671Z,14.94
2023-03-24T08:17:37.364Z,14.86
2023-03-24T08:18:38.024Z,14.99
2023-03-24T08:19:58.798Z,14.99
2023-03-24T08:20:38.759Z,14.94
2023-03-24T08:21:39.266Z,15.05
2023-03-24T08:22:40.262Z,15
2023-03-24T08:23:40.782Z,15.05
2023-03-24T08:24:41.694Z,15.12
2023-03-24T08:25:42.630Z,15.12
2023-03-24T08:26:42.545Z,15.22
2023-03-24T08:27:43.654Z,15.25
2023-03-24T08:28:44.259Z,15.29
2023-03-24T08:29:44.947Z,15.26
2023-03-24T08:30:45.685Z,15.33
2023-03-24T08:31:46.209Z,15.3
2023-03-24T08:32:47.206Z,15.33
2023-03-24T08:33:47.250Z,15.45
2023-03-24T08:34:47.884Z,15.39
2023-03-24T08:35:49.541Z,15.44
2023-03-24T08:36:49.083Z,15.39
2023-03-24T08:37:49.045Z,15.36
2023-03-24T08:38:49.840Z,15.48
2023-03-24T08:39:49.762Z,15.43
2023-03-24T08:40:50.558Z,15.44
2023-03-24T08:41:51.078Z,15.41
2023-03-24T08:42:51.502Z,15.47
2023-03-24T08:43:52.262Z,15.39
2023-03-24T08:44:52.633Z,15.52
2023-03-24T08:45:53.598Z,15.51
2023-03-24T08:46:54.120Z,15.48
2023-03-24T08:47:55.177Z,15.51
2023-03-24T08:48:55.468Z,15.54
2023-03-24T08:49:55.602Z,15.55
2023-03-24T08:50:56.585Z,15.51
2023-03-24T08:51:56.570Z,15.5
2023-03-24T08:52:57.477Z,15.51
2023-03-24T08:53:58.240Z,15.51
2023-03-24T08:54:58.854Z,15.6
2023-03-24T08:55:59.586Z,15.55
2023-03-24T08:57:00.503Z,15.63
2023-03-24T08:58:00.405Z,15.63
2023-03-24T08:59:01.139Z,15.66
2023-03-24T09:00:02.041Z,15.65
2023-03-24T09:01:02.000Z,15.75
2023-03-24T09:02:03.160Z,15.8
2023-03-24T09:04:03.936Z,15.75
2023-03-24T09:05:04.885Z,15.73
2023-03-24T09:06:06.217Z,15.87
2023-03-24T09:07:08.384Z,15.76
2023-03-24T09:09:08.092Z,15.73
2023-03-24T09:10:09.291Z,15.81
2023-03-24T09:11:10.100Z,15.73
2023-03-24T09:12:10.921Z,15.75
2023-03-24T09:13:11.927Z,15.76
2023-03-24T09:14:11.898Z,15.78
2023-03-24T09:15:13.829Z,15.72
2023-03-24T09:16:12.814Z,15.72
2023-03-24T09:17:13.989Z,15.76
2023-03-24T09:18:14.127Z,15.76
2023-03-24T09:19:14.305Z,15.78
2023-03-24T09:20:15.259Z,15.73
2023-03-24T09:21:16.031Z,15.8
2023-03-24T09:22:15.940Z,15.83
2023-03-24T09:23:16.826Z,15.7
2023-03-24T09:24:17.925Z,15.7
2023-03-24T09:25:18.628Z,15.59
2023-03-24T09:26:19.267Z,15.59
2023-03-24T09:27:19.575Z,15.52
2023-03-24T09:28:20.314Z,15.55
2023-03-24T09:29:20.423Z,15.55
2023-03-24T09:30:20.942Z,15.57
2023-03-24T09:31:21.920Z,15.5
2023-03-24T09:32:22.328Z,15.41
2023-03-24T09:33:23.577Z,15.5
2023-03-24T09:34:23.565Z,15.36
2023-03-24T09:35:24.534Z,15.39
2023-03-24T09:36:25.607Z,15.45
2023-03-24T09:37:25.659Z,15.48
2023-03-24T09:38:26.706Z,15.5
2023-03-24T09:39:27.239Z,15.48
2023-03-24T09:40:28.013Z,15.48
2023-03-24T09:41:29.162Z,15.43
2023-03-24T09:42:29.218Z,15.44
2023-03-24T09:43:30.175Z,15.39
2023-03-24T09:44:30.922Z,15.35
2023-03-24T09:45:32.046Z,15.37
2023-03-24T09:46:32.808Z,15.43
2023-03-24T09:47:33.574Z,15.44
2023-03-24T09:48:34.725Z,15.45
2023-03-24T09:49:35.450Z,15.44
2023-03-24T09:50:36.626Z,15.45
2023-03-24T09:51:37.467Z,15.45
2023-03-24T09:52:37.997Z,15.37
2023-03-24T09:53:38.886Z,15.41
2023-03-24T09:54:39.426Z,15.45
2023-03-24T09:55:40.232Z,15.55
2023-03-24T09:56:40.311Z,15.54
2023-03-24T09:57:41.333Z,15.55
2023-03-24T09:58:42.253Z,15.63
2023-03-24T09:59:42.574Z,15.52
2023-03-24T10:00:43.470Z,15.62
2023-03-24T10:01:43.649Z,15.54
2023-03-24T10:02:44.275Z,15.55
2023-03-24T10:03:45.438Z,15.59
2023-03-24T10:04:45.321Z,15.54
2023-03-24T10:05:46.228Z,15.52
2023-03-24T10:06:46.131Z,15.47
2023-03-24T10:07:47.099Z,15.55
2023-03-24T10:08:47.280Z,15.55
2023-03-24T10:09:47.997Z,15.51
2023-03-24T10:10:49.004Z,15.43
2023-03-24T10:11:49.989Z,15.47
2023-03-24T10:12:50.911Z,15.43
2023-03-24T10:13:51.207Z,15.47
2023-03-24T10:14:51.345Z,15.37
2023-03-24T10:15:52.825Z,15.48
2023-03-24T10:16:52.828Z,15.43
2023-03-24T10:17:53.716Z,15.47
2023-03-24T10:18:54.451Z,15.36
2023-03-24T10:20:00.634Z,15.45
2023-03-24T10:20:55.226Z,15.44
2023-03-24T10:21:56.379Z,15.45
2023-03-24T10:22:56.275Z,15.35
2023-03-24T10:23:57.400Z,15.33
2023-03-24T10:24:58.155Z,15.32
2023-03-24T10:25:58.888Z,15.12
2023-03-24T10:26:58.798Z,15.18
2023-03-24T10:27:59.100Z,15.14
2023-03-24T10:28:59.907Z,15.12
2023-03-24T10:30:00.518Z,15.05
2023-03-24T10:31:01.287Z,15.04
2023-03-24T10:32:02.363Z,15.04
2023-03-24T10:33:03.168Z,15.02
2023-03-24T10:34:04.030Z,15.04
2023-03-24T10:35:05.201Z,14.99
2023-03-24T10:36:08.350Z,14.93
2023-03-24T10:37:05.764Z,15.02
2023-03-24T10:38:06.036Z,14.85
2023-03-24T10:39:43.904Z,14.89
2023-03-24T10:41:07.420Z,14.73
2023-03-24T10:42:08.143Z,14.77
2023-03-24T10:43:15.022Z,14.77
2023-03-24T10:45:09.694Z,14.62
2023-03-24T10:46:10.453Z,14.56
2023-03-24T10:47:10.759Z,14.58
2023-03-24T10:48:11.113Z,14.51
2023-03-24T10:49:11.087Z,14.45
2023-03-24T10:50:20.616Z,14.48
2023-03-24T10:52:13.277Z,14.44
2023-03-24T10:53:13.948Z,14.43
2023-03-24T10:54:14.180Z,14.45
2023-03-24T10:55:14.484Z,14.38
2023-03-24T10:56:15.568Z,14.44
2023-03-24T10:57:16.612Z,14.45
2023-03-24T10:58:17.368Z,14.51
2023-03-24T10:59:17.467Z,14.48
2023-03-24T11:00:18.177Z,14.41
2023-03-24T11:01:19.083Z,14.37
2023-03-24T11:02:20.144Z,14.31
2023-03-24T11:03:20.769Z,14.41
2023-03-24T11:04:21.620Z,14.38
2023-03-24T11:05:21.357Z,14.37
2023-03-24T11:06:22.207Z,14.28
2023-03-24T11:07:23.194Z,14.31
2023-03-24T11:08:23.306Z,14.44
2023-03-24T11:09:23.652Z,14.38
2023-03-24T11:10:24.487Z,14.44
2023-03-24T11:11:25.454Z,14.41
2023-03-24T11:12:26.025Z,14.4
2023-03-24T11:13:26.523Z,14.34
2023-03-24T11:14:27.395Z,14.37
2023-03-24T11:15:29.252Z,14.44
2023-03-24T11:16:29.376Z,14.48
2023-03-24T11:17:30.346Z,14.4
2023-03-24T11:18:30.011Z,14.43
2023-03-24T11:19:31.116Z,14.56
2023-03-24T11:20:31.233Z,14.59
2023-03-24T11:21:31.455Z,14.48
2023-03-24T11:22:31.803Z,14.52
2023-03-24T11:23:32.334Z,14.61
2023-03-24T11:24:33.561Z,14.61
2023-03-24T11:25:47.057Z,14.59
2023-03-24T11:26:34.876Z,14.55
2023-03-24T11:27:35.151Z,14.52
2023-03-24T11:28:35.973Z,14.62
2023-03-24T11:29:36.719Z,14.56
2023-03-24T11:30:37.526Z,14.7
2023-03-24T11:31:38.093Z,14.79
2023-03-24T11:32:38.677Z,14.87
2023-03-24T11:33:41.952Z,15.02
2023-03-24T11:35:55.976Z,15.17
2023-03-24T11:37:42.026Z,15.17
2023-03-24T11:38:42.179Z,15.29
2023-03-24T11:39:43.006Z,15.45
2023-03-24T11:40:43.540Z,15.45
2023-03-24T11:41:44.275Z,15.63
2023-03-24T11:42:46.293Z,15.75
2023-03-24T11:43:45.012Z,15.84
2023-03-24T11:44:45.576Z,15.81
2023-03-24T11:45:45.731Z,15.96
2023-03-24T11:46:46.210Z,16.05
2023-03-24T11:47:46.485Z,16.17
2023-03-24T11:48:47.691Z,16.36
2023-03-24T11:50:48.334Z,16.59
2023-03-24T11:51:49.139Z,16.68
2023-03-24T11:52:49.308Z,16.77
2023-03-24T11:53:49.299Z,16.94
2023-03-24T11:54:50.443Z,17.02
2023-03-24T11:55:52.001Z,16.99
2023-03-24T11:56:51.790Z,17.01
2023-03-24T11:57:52.645Z,17.14
2023-03-24T11:58:53.572Z,17.28
2023-03-24T11:59:54.505Z,17.27
2023-03-24T12:00:55.022Z,17.32
2023-03-24T12:01:55.563Z,17.41
2023-03-24T12:02:56.626Z,17.41
2023-03-24T12:03:57.057Z,17.44
2023-03-24T12:04:57.969Z,17.53
2023-03-24T12:05:59.838Z,17.52
2023-03-24T12:06:59.701Z,17.68
2023-03-24T12:08:00.741Z,17.68
2023-03-24T12:09:01.461Z,17.66
2023-03-24T12:10:02.037Z,17.52
2023-03-24T12:11:03.167Z,17.57
2023-03-24T12:12:09.807Z,17.53
2023-03-24T12:13:04.667Z,17.54
2023-03-24T12:14:05.182Z,17.46
2023-03-24T12:15:27.113Z,17.46
2023-03-24T12:16:06.199Z,17.46
2023-03-24T12:17:07.183Z,17.5
2023-03-24T12:18:08.207Z,17.41
2023-03-24T12:19:09.122Z,17.47
2023-03-24T12:20:09.884Z,17.34
2023-03-24T12:21:10.486Z,17.42
2023-03-24T12:22:11.666Z,17.32
2023-03-24T12:23:12.616Z,17.2
2023-03-24T12:24:12.553Z,17.2
2023-03-24T12:25:12.599Z,17.2
2023-03-24T12:26:13.532Z,17.27
2023-03-24T12:27:14.274Z,17.31
2023-03-24T12:28:14.403Z,17.34
2023-03-24T12:29:14.672Z,17.35
2023-03-24T12:30:15.434Z,17.35
2023-03-24T12:31:16.321Z,17.41
2023-03-24T12:32:17.172Z,17.52
2023-03-24T12:33:17.591Z,17.5
2023-03-24T12:34:18.502Z,17.68
2023-03-24T12:35:19.357Z,17.73
2023-03-24T12:36:20.265Z,17.9
2023-03-24T12:37:21.439Z,17.97
2023-03-24T12:38:22.417Z,17.91
2023-03-24T12:39:23.178Z,18
2023-03-24T12:40:24.465Z,17.98
2023-03-24T12:41:25.377Z,17.97
2023-03-24T12:42:24.891Z,17.98
2023-03-24T12:43:25.641Z,17.95
2023-03-24T12:44:26.189Z,17.95
2023-03-24T12:45:27.034Z,17.95
2023-03-24T12:46:47.551Z,18.06
2023-03-24T12:47:28.580Z,18.05
2023-03-24T12:48:29.333Z,18.08
2023-03-24T12:49:29.448Z,18.02
2023-03-24T12:50:30.392Z,18.09
2023-03-24T12:51:31.358Z,18.05
2023-03-24T12:52:32.310Z,18
2023-03-24T12:53:33.314Z,17.87
2023-03-24T12:54:34.034Z,17.73
2023-03-24T12:55:34.506Z,17.76
2023-03-24T12:56:35.731Z,17.63
2023-03-24T12:57:35.712Z,17.52
2023-03-24T12:58:36.434Z,17.47
2023-03-24T12:59:37.136Z,17.41
2023-03-24T13:00:37.833Z,17.37
2023-03-24T13:01:38.960Z,17.23
2023-03-24T13:02:39.216Z,17.19
2023-03-24T13:03:39.659Z,17.09
2023-03-24T13:04:39.973Z,17.13
2023-03-24T13:05:40.747Z,17.01
2023-03-24T13:06:41.154Z,16.97
2023-03-24T13:07:42.112Z,16.95
2023-03-24T13:08:42.237Z,16.95
2023-03-24T13:09:42.155Z,16.92
2023-03-24T13:10:43.115Z,16.82
2023-03-24T13:11:44.094Z,16.84
2023-03-24T13:12:45.065Z,16.79
2023-03-24T13:13:45.735Z,16.76
2023-03-24T13:14:46.300Z,16.79
2023-03-24T13:15:47.824Z,16.83
2023-03-24T13:16:48.004Z,16.83
2023-03-24T13:17:50.925Z,16.76
2023-03-24T13:19:49.805Z,16.72
2023-03-24T13:20:50.717Z,16.74